Time;durP1;ratioP1;P1;durP2;ratioP2;P2;SDS_P1;SDS_P2;PMS_P1;PMS_P2;Temp;Humidity;BMP_temperature;BMP_pressure;BME280_temperature;BME280_humidity;BME280_pressure;Samples;Min_cycle;Max_cycle;Signal;HPM_P1;HPM_P2
2021/01/22 00:00:10;;;;;;;2.28;0.80;;;10.80;87.20;;;9.88;79.61;97387.50;5002960;28;20046;-88
2021/01/22 00:02:37;;;;;;;4.35;0.80;;;10.80;87.40;;;9.90;79.67;97375.31;4986678;28;20761;-88
2021/01/22 00:05:06;;;;;;;4.15;0.90;;;10.80;87.40;;;9.93;79.35;97363.09;4986553;28;20050;-88
2021/01/22 00:07:32;;;;;;;3.83;0.88;;;10.80;87.40;;;9.96;79.20;97368.03;4986204;28;20055;-89
2021/01/22 00:09:59;;;;;;;4.07;1.10;;;10.80;87.30;;;9.97;79.00;97358.78;4986644;28;20050;-88
2021/01/22 00:12:27;;;;;;;3.67;0.90;;;10.80;87.10;;;9.98;78.89;97355.00;4988032;28;20046;-88
2021/01/22 00:14:54;;;;;;;5.28;1.05;;;10.80;87.20;;;9.96;78.57;97351.72;4986289;28;20050;-88
2021/01/22 00:17:21;;;;;;;3.65;1.10;;;10.80;87.00;;;9.97;78.77;97354.16;4985965;28;20511;-89
2021/01/22 00:19:47;;;;;;;6.88;1.10;;;10.80;87.00;;;9.96;79.68;97332.72;4986449;28;20084;-89
2021/01/22 00:22:14;;;;;;;3.78;1.00;;;10.80;87.50;;;9.98;79.31;97338.72;4987802;28;20053;-88
2021/01/22 00:24:41;;;;;;;3.25;0.90;;;10.80;87.50;;;9.96;80.45;97338.97;4987849;28;20055;-88
2021/01/22 00:27:08;;;;;;;3.85;0.90;;;10.80;88.50;;;9.98;80.15;97346.84;4985900;28;20054;-88
2021/01/22 00:29:36;;;;;;;3.72;0.93;;;10.80;88.50;;;9.98;80.31;97344.13;4986450;28;20085;-88
2021/01/22 00:32:03;;;;;;;3.92;0.80;;;10.80;88.90;;;9.95;80.35;97340.03;4986899;28;20046;-88
2021/01/22 00:34:30;;;;;;;3.45;1.00;;;10.80;88.40;;;9.97;80.43;97331.63;4987738;28;20833;-89
2021/01/22 00:36:56;;;;;;;3.72;0.95;;;10.80;88.80;;;9.89;81.77;97327.47;4987505;28;20050;-89
2021/01/22 00:39:24;;;;;;;3.13;0.95;;;10.70;89.50;;;9.92;81.45;97332.41;4989866;28;20058;-88
2021/01/22 00:41:50;;;;;;;3.60;0.90;;;10.70;89.30;;;9.89;81.63;97323.97;4989909;28;20046;-88
2021/01/22 00:44:17;;;;;;;4.35;0.88;;;10.70;89.70;;;9.93;81.19;97327.78;4990084;28;20144;-89
2021/01/22 00:46:45;;;;;;;3.53;0.82;;;10.70;89.70;;;9.87;82.01;97326.13;4989075;28;20396;-88
2021/01/22 00:49:14;;;;;;;3.83;0.90;;;10.70;90.00;;;9.84;82.30;97338.28;4991253;28;20100;-88
2021/01/22 00:51:41;;;;;;;3.50;1.00;;;10.70;89.80;;;9.88;81.89;97333.16;4989739;28;20526;-88
2021/01/22 00:54:08;;;;;;;4.00;0.90;;;10.70;90.20;;;9.90;81.59;97326.41;4989549;28;20046;-88
2021/01/22 00:56:55;;;;;;;5.78;0.95;;;10.60;89.90;;;9.90;82.19;97314.72;4990318;28;20051;-89
2021/01/22 00:59:21;;;;;;;4.03;0.82;;;10.70;90.30;;;9.88;82.05;97319.59;4991115;28;20046;-88
2021/01/22 01:01:49;;;;;;;5.20;1.00;;;10.70;90.30;;;9.84;82.43;97319.28;4989638;28;20423;-88
2021/01/22 01:04:17;;;;;;;3.67;1.10;;;10.70;91.00;;;9.88;82.27;97312.28;4989833;28;20049;-88
2021/01/22 01:06:56;;;;;;;3.22;0.65;;;10.70;90.40;;;9.88;81.96;97308.72;4989284;28;20054;-89
2021/01/22 01:09:23;;;;;;;3.80;0.88;;;10.70;90.10;;;9.89;82.24;97313.09;4989562;28;20058;-88
2021/01/22 01:12:03;;;;;;;1.92;0.60;;;10.60;90.10;;;9.94;81.87;97310.44;4989818;28;20097;-88
2021/01/22 01:14:42;;;;;;;5.90;0.90;;;10.60;90.70;;;9.91;82.77;97308.22;4989400;28;20050;-89
2021/01/22 01:17:11;;;;;;;4.03;0.82;;;10.60;91.30;;;9.92;81.98;97302.53;4989188;28;20066;-88
2021/01/22 01:19:37;;;;;;;3.50;1.00;;;10.60;91.50;;;9.88;82.14;97306.84;4989426;28;20054;-87
2021/01/22 01:22:04;;;;;;;6.95;1.20;;;10.60;91.90;;;9.95;81.75;97312.03;4989226;28;20054;-88
2021/01/22 01:24:31;;;;;;;3.85;0.98;;;10.60;91.70;;;9.95;81.88;97306.63;4989059;28;20054;-88
2021/01/22 01:26:58;;;;;;;4.75;1.15;;;10.60;92.20;;;9.96;81.94;97302.84;4988653;28;20081;-88
2021/01/22 01:29:25;;;;;;;6.82;1.48;;;10.50;91.90;;;9.96;81.55;97303.66;4990470;28;20055;-88
2021/01/22 01:31:51;;;;;;;6.13;1.00;;;10.50;91.80;;;9.95;81.48;97295.75;4988918;28;20050;-88
2021/01/22 01:34:19;;;;;;;6.53;1.20;;;10.50;92.10;;;9.90;82.05;97293.81;4990461;28;20120;-88
2021/01/22 01:36:46;;;;;;;5.50;1.20;;;10.50;91.90;;;9.91;81.71;97300.06;4989612;28;20089;-89
2021/01/22 01:39:13;;;;;;;6.63;1.45;;;10.50;91.40;;;9.90;82.01;97287.56;4990227;28;20053;-88
2021/01/22 01:41:40;;;;;;;6.32;1.40;;;10.60;91.20;;;9.90;82.34;97284.84;4990330;28;20038;-88
2021/01/22 01:44:07;;;;;;;6.07;1.38;;;10.50;91.20;;;9.86;81.71;97291.88;4989246;28;20543;-88
2021/01/22 01:46:36;;;;;;;3.20;0.98;;;10.60;90.80;;;9.87;81.47;97298.94;4988523;28;20047;-87
2021/01/22 01:49:03;;;;;;;6.90;1.40;;;10.60;90.70;;;9.89;81.45;97299.50;4988247;28;20148;-88
2021/01/22 01:51:31;;;;;;;5.07;1.17;;;10.60;90.20;;;9.88;80.99;97300.56;5005196;28;20049;-88
2021/01/22 01:53:58;;;;;;;4.15;1.08;;;10.60;90.20;;;9.88;81.40;97301.41;4988584;28;20042;-88
2021/01/22 01:56:26;;;;;;;4.75;1.00;;;10.60;90.20;;;9.85;81.66;97312.78;4988254;28;20046;-88
2021/01/22 01:58:53;;;;;;;6.20;0.90;;;10.70;90.20;;;9.89;81.33;97334.81;4990109;28;20053;-88
2021/01/22 02:01:21;;;;;;;8.55;1.58;;;10.60;90.00;;;9.87;82.72;97402.16;4989847;28;20145;-89
2021/01/22 02:03:48;;;;;;;5.22;1.17;;;10.70;91.30;;;9.78;82.92;97437.09;4987848;28;20589;-88
2021/01/22 02:06:14;;;;;;;4.13;0.80;;;10.60;91.60;;;9.54;81.77;97445.53;4987688;28;20057;-88
2021/01/22 02:08:43;;;;;;;3.88;0.95;;;10.50;90.00;;;9.51;81.14;97458.78;4989597;28;20046;-88
2021/01/22 02:11:13;;;;;;;1.95;0.60;;;10.40;89.50;;;9.48;80.62;97467.44;4989531;28;20057;-89
2021/01/22 02:13:41;;;;;;;2.20;0.70;;;10.30;89.10;;;9.43;80.39;97472.81;5004597;28;20054;-89
2021/01/22 02:16:09;;;;;;;3.42;0.80;;;10.20;88.90;;;9.43;79.92;97489.91;4987842;28;20093;-88
2021/01/22 02:18:37;;;;;;;3.47;1.02;;;10.10;89.00;;;9.32;79.80;97499.00;4989796;28;20038;-88
2021/01/22 02:21:21;;;;;;;2.13;1.10;;;10.00;88.60;;;9.19;78.08;97516.44;4988493;28;20060;-89
2021/01/22 02:23:51;;;;;;;3.83;1.25;;;9.80;87.90;;;9.20;77.89;97523.53;4988436;28;20054;-88
2021/01/22 02:26:56;;;;;;;5.20;1.40;;;9.70;87.80;;;9.09;76.84;97538.84;4989219;28;20034;-88
2021/01/22 02:29:25;;;;;;;4.38;1.92;;;9.60;87.80;;;8.94;77.06;97550.25;4985398;28;20054;-87
2021/01/22 02:31:54;;;;;;;4.40;1.80;;;9.50;87.70;;;8.82;77.48;97559.56;4989840;28;20534;-89
2021/01/22 02:34:26;;;;;;;3.78;1.63;;;9.40;87.70;;;8.93;77.05;97578.47;4988025;28;20042;-88
2021/01/22 02:36:56;;;;;;;;;;;9.30;88.00;;;8.69;76.05;97593.25;4987896;28;20050;-88
2021/01/22 02:39:31;;;;;;;2.45;1.30;;;9.20;86.80;;;8.64;76.66;97623.78;4987870;28;19952;-88
2021/01/22 02:42:01;;;;;;;2.10;1.30;;;9.10;87.00;;;8.65;76.20;97647.13;4976120;28;20050;-88
2021/01/22 02:44:31;;;;;;;1.50;0.73;;;9.00;86.60;;;8.44;76.05;97659.47;4968420;28;20138;-88
2021/01/22 02:47:00;;;;;;;2.25;0.90;;;8.90;86.00;;;8.44;74.97;97673.03;4967856;28;20051;-88
2021/01/22 02:49:27;;;;;;;2.95;1.40;;;8.80;86.40;;;8.38;74.83;97692.94;4969466;28;20051;-87
2021/01/22 02:51:55;;;;;;;3.13;1.25;;;8.70;86.30;;;8.42;74.60;97696.84;4968378;28;20054;-88
2021/01/22 02:54:22;;;;;;;2.58;1.23;;;8.60;86.30;;;8.32;73.50;97708.25;4968204;28;20065;-88
2021/01/22 02:56:57;;;;;;;2.65;1.33;;;8.50;85.70;;;8.36;74.36;97720.25;4967867;28;20062;-88
2021/01/22 02:59:39;;;;;;;2.50;1.10;;;8.40;86.30;;;8.39;74.42;97729.78;4968439;28;20055;-88
2021/01/22 03:02:19;;;;;;;2.40;0.90;;;8.30;86.70;;;8.30;73.62;97742.06;4968227;28;20082;-87
2021/01/22 03:04:47;;;;;;;1.90;1.00;;;8.30;86.30;;;8.20;73.68;97743.47;4967720;28;20105;-88
2021/01/22 03:07:22;;;;;;;3.67;1.20;;;8.10;86.30;;;8.28;72.60;97741.47;4967528;28;20105;-88
2021/01/22 03:09:51;;;;;;;3.42;1.30;;;8.10;86.40;;;8.21;73.04;97749.75;4967944;28;20990;-88
2021/01/22 03:12:22;;;;;;;5.40;1.40;;;8.00;86.50;;;7.93;72.94;97764.00;4967982;28;20070;-88
2021/01/22 03:14:50;;;;;;;2.65;1.30;;;8.10;86.30;;;8.03;73.74;97764.22;4967835;28;20051;-88
2021/01/22 03:17:18;;;;;;;3.05;1.60;;;8.00;86.60;;;8.11;73.37;97768.47;4968587;28;20047;-88
2021/01/22 03:19:47;;;;;;;2.70;1.60;;;7.90;86.70;;;8.16;73.27;97771.28;4959955;28;20054;-88
2021/01/22 03:22:14;;;;;;;2.67;1.58;;;7.80;86.80;;;8.14;72.63;97782.34;4979875;28;20047;-87
2021/01/22 03:24:42;;;;;;;5.13;2.08;;;7.70;87.30;;;8.04;72.97;97787.56;4965489;28;20652;-88
2021/01/22 03:27:09;;;;;;;4.10;2.22;;;7.70;87.40;;;8.07;73.31;97792.47;4966852;28;20093;-88
2021/01/22 03:29:37;;;;;;;3.90;2.20;;;7.70;87.50;;;7.98;72.91;97796.63;4968983;28;20496;-88
2021/01/22 03:32:06;;;;;;;6.22;2.85;;;7.70;87.30;;;7.96;73.32;97804.16;4968918;28;20133;-88
2021/01/22 03:34:33;;;;;;;5.78;3.08;;;7.60;87.50;;;7.97;72.89;97811.22;4969008;28;20074;-87
2021/01/22 03:37:01;;;;;;;6.90;3.53;;;7.60;88.00;;;7.89;73.50;97817.00;4967271;28;20059;-88
2021/01/22 03:39:29;;;;;;;5.55;3.50;;;7.60;87.80;;;7.76;73.54;97799.88;4967599;28;20054;-88
2021/01/22 03:41:56;;;;;;;7.05;3.80;;;7.60;87.50;;;7.79;73.49;97812.16;4967788;28;20141;-88
2021/01/22 03:44:23;;;;;;;5.70;3.78;;;7.50;87.80;;;7.78;74.00;97821.31;4968684;28;20097;-88
2021/01/22 03:46:49;;;;;;;7.90;3.65;;;7.50;88.00;;;7.80;73.43;97828.13;4973609;28;20062;-87
2021/01/22 03:49:17;;;;;;;6.55;3.85;;;7.50;88.20;;;7.71;73.71;97834.97;4986722;28;20105;-88
2021/01/22 03:51:46;;;;;;;6.10;3.20;;;7.50;88.40;;;7.75;73.83;97833.44;4986658;28;20038;-88
2021/01/22 03:54:13;;;;;;;7.20;3.33;;;7.40;88.00;;;7.73;73.30;97854.53;4987901;28;20455;-88
2021/01/22 03:56:41;;;;;;;5.57;3.10;;;7.40;88.00;;;7.73;73.04;97862.63;4986283;28;20128;-88
2021/01/22 03:59:08;;;;;;;4.72;2.75;;;7.40;88.00;;;7.75;73.64;97865.94;4986809;28;20057;-88
2021/01/22 04:01:37;;;;;;;4.95;2.80;;;7.30;88.40;;;7.78;73.01;97870.88;4986772;28;20047;-88
2021/01/22 04:04:05;;;;;;;5.03;2.88;;;7.30;88.30;;;7.66;73.18;97871.91;4986395;28;20077;-88
2021/01/22 04:06:33;;;;;;;6.35;2.97;;;7.30;88.30;;;7.58;73.43;97870.38;4987404;28;20049;-87
2021/01/22 04:09:00;;;;;;;4.57;2.58;;;7.30;88.40;;;7.50;74.06;97881.50;4986370;28;20061;-88
2021/01/22 04:11:27;;;;;;;4.43;2.78;;;7.30;88.60;;;7.49;74.60;97888.78;4986819;28;20057;-88
2021/01/22 04:13:54;;;;;;;5.15;3.13;;;7.30;88.70;;;7.46;74.79;97899.25;4991115;28;20444;-87
2021/01/22 04:16:20;;;;;;;6.45;4.22;;;7.20;88.70;;;7.46;74.77;97899.25;4990090;28;20050;-88
2021/01/22 04:18:47;;;;;;;7.18;4.40;;;7.20;88.70;;;7.52;74.49;97910.00;4990710;28;20137;-88
2021/01/22 04:21:14;;;;;;;9.43;4.97;;;7.20;88.90;;;7.49;74.40;97917.75;4990471;28;20065;-87
2021/01/22 04:23:42;;;;;;;8.30;4.88;;;7.10;89.00;;;7.52;74.14;97917.28;4990361;28;20084;-87
2021/01/22 04:26:08;;;;;;;8.20;5.32;;;7.10;89.10;;;7.46;74.42;97915.47;4991371;28;20081;-88
2021/01/22 04:28:35;;;;;;;7.68;5.00;;;7.10;89.10;;;7.46;74.19;97916.31;4990547;28;20480;-87
2021/01/22 04:31:02;;;;;;;8.32;5.00;;;7.10;89.10;;;7.43;73.82;97917.59;4990523;28;20058;-88
2021/01/22 04:33:29;;;;;;;8.77;5.10;;;7.00;88.70;;;7.37;74.31;97929.34;4990231;28;20136;-88
2021/01/22 04:35:56;;;;;;;8.05;4.93;;;7.00;88.90;;;7.34;74.19;97918.97;4991085;28;20119;-87
2021/01/22 04:38:22;;;;;;;7.65;4.80;;;7.00;89.10;;;7.42;74.48;97928.66;4975373;28;20101;-87
2021/01/22 04:40:51;;;;;;;7.18;4.60;;;7.00;89.60;;;7.44;74.27;97930.09;4970701;28;20428;-88
2021/01/22 04:43:19;;;;;;;7.05;4.80;;;7.00;89.30;;;7.50;73.88;97938.31;4979781;28;20054;-88
2021/01/22 04:45:46;;;;;;;8.85;5.10;;;7.00;89.30;;;7.39;73.88;97940.75;4989609;28;20042;-87
2021/01/22 04:48:13;;;;;;;7.15;4.60;;;7.00;89.30;;;7.42;74.00;97937.59;4991442;28;20531;-88
2021/01/22 04:50:43;;;;;;;6.45;4.70;;;6.90;89.40;;;7.33;74.22;97938.97;4990154;28;20555;-88
2021/01/22 04:53:11;;;;;;;7.35;5.40;;;6.90;89.30;;;7.40;73.94;97939.69;4990309;28;20054;-88
2021/01/22 04:55:43;;;;;;;7.68;4.75;;;6.90;89.30;;;7.33;73.99;97941.66;4989380;28;20043;-88
2021/01/22 04:58:12;;;;;;;8.90;5.32;;;7.10;89.40;;;7.31;74.07;97935.66;4991334;28;20124;-87
2021/01/22 05:00:39;;;;;;;7.00;5.20;;;6.90;89.20;;;7.28;73.94;97941.53;4989884;28;20047;-88
2021/01/22 05:03:07;;;;;;;8.88;5.28;;;6.80;89.20;;;7.25;74.02;97952.78;4982457;28;20547;-87
2021/01/22 05:05:34;;;;;;;9.20;5.82;;;6.90;89.30;;;7.19;74.71;97953.69;4969762;28;20141;-87
2021/01/22 05:08:02;;;;;;;9.25;5.72;;;6.90;89.40;;;7.16;74.17;97946.03;4970070;28;20054;-87
2021/01/22 05:10:30;;;;;;;8.25;5.45;;;6.90;89.30;;;7.16;74.47;97948.72;4971303;28;20573;-87
2021/01/22 05:12:56;;;;;;;8.32;5.60;;;6.90;89.20;;;7.21;74.51;97951.59;4970338;28;20050;-88
2021/01/22 05:15:26;;;;;;;9.93;6.18;;;6.90;89.40;;;7.21;74.14;97948.88;4971130;28;20046;-86
2021/01/22 05:17:55;;;;;;;8.30;6.00;;;6.90;89.20;;;7.18;74.35;97946.66;4971547;28;20512;-88
2021/01/22 05:20:34;;;;;;;9.65;6.22;;;6.90;89.40;;;7.15;74.18;97947.09;4970235;28;20100;-88
2021/01/22 05:23:03;;;;;;;10.18;6.30;;;6.90;89.40;;;7.20;74.11;97941.84;4970469;28;20531;-89
2021/01/22 05:25:31;;;;;;;9.10;6.75;;;6.80;89.20;;;7.14;74.68;97948.13;4970335;28;20046;-88
2021/01/22 05:27:59;;;;;;;8.50;6.38;;;6.90;89.40;;;7.17;74.46;97950.38;4971890;28;20041;-88
2021/01/22 05:30:31;;;;;;;9.68;6.63;;;6.80;89.30;;;7.24;73.99;97938.44;4970381;28;20055;-87
2021/01/22 05:33:15;;;;;;;10.30;6.68;;;6.80;89.70;;;7.26;73.67;97938.22;4970085;28;20149;-89
2021/01/22 05:35:42;;;;;;;10.95;6.35;;;6.80;89.70;;;7.22;74.20;97947.84;4969562;28;20528;-89
2021/01/22 05:38:09;;;;;;;10.77;6.55;;;6.80;89.70;;;7.23;74.29;97949.47;4978696;28;20049;-89
2021/01/22 05:40:36;;;;;;;11.68;6.90;;;6.80;89.50;;;7.22;74.11;97953.25;4989440;28;20065;-89
2021/01/22 05:43:03;;;;;;;9.65;6.25;;;6.80;89.60;;;7.21;73.91;97949.69;4988856;28;20058;-89
2021/01/22 05:45:42;;;;;;;10.27;6.40;;;6.80;89.70;;;7.13;74.30;97952.72;4989086;28;20550;-90
2021/01/22 05:48:20;;;;;;;10.57;6.50;;;6.80;89.60;;;7.14;74.65;97958.94;4989229;28;20763;-88
2021/01/22 05:50:50;;;;;;;8.57;5.82;;;6.80;89.70;;;7.16;74.75;97962.25;4989123;28;20050;-88
2021/01/22 05:53:19;;;;;;;11.90;6.65;;;6.80;89.80;;;7.19;74.13;97961.81;4988944;28;20503;-87
2021/01/22 05:55:46;;;;;;;10.50;6.43;;;6.80;89.70;;;7.17;74.69;97964.72;4988356;28;20054;-87
2021/01/22 05:58:28;;;;;;;11.00;6.50;;;6.80;89.60;;;7.17;74.55;97961.22;4988985;28;20132;-88
2021/01/22 06:01:08;;;;;;;11.65;6.80;;;6.80;89.70;;;7.14;74.25;97964.34;4988929;28;20057;-87
2021/01/22 06:03:37;;;;;;;9.13;6.40;;;6.80;89.60;;;7.11;74.65;97970.22;4989273;28;20582;-87
2021/01/22 06:06:05;;;;;;;9.85;6.65;;;6.80;89.70;;;7.14;74.82;97972.47;4989824;28;20051;-87
2021/01/22 06:08:32;;;;;;;9.63;6.50;;;6.90;89.80;;;7.12;74.51;97975.41;5005145;28;20544;-89
2021/01/22 06:11:01;;;;;;;9.85;6.47;;;6.80;89.70;;;7.15;75.09;97971.44;4988806;28;20046;-88
2021/01/22 06:13:30;;;;;;;10.73;7.05;;;6.80;90.00;;;7.21;74.95;97971.34;4988820;28;20149;-88
2021/01/22 06:15:58;;;;;;;11.57;7.38;;;6.80;90.00;;;7.23;74.25;97976.53;4988339;28;20153;-89
2021/01/22 06:18:33;;;;;;;12.07;7.47;;;6.80;90.10;;;7.23;74.57;97976.53;4988508;28;20047;-88
2021/01/22 06:21:17;;;;;;;11.52;7.35;;;6.80;90.10;;;7.11;74.95;97981.06;4988314;28;20515;-87
2021/01/22 06:23:47;;;;;;;11.20;7.65;;;6.80;90.20;;;7.11;75.05;97978.34;4988456;28;20046;-88
2021/01/22 06:26:15;;;;;;;13.00;7.30;;;6.80;90.30;;;7.18;74.88;97965.59;4988353;28;20147;-88
2021/01/22 06:28:43;;;;;;;12.00;7.35;;;6.80;90.20;;;7.14;74.37;97977.88;4989989;28;20046;-87
2021/01/22 06:31:10;;;;;;;10.90;7.15;;;6.80;90.00;;;7.05;74.96;97980.88;4988541;28;20477;-84
2021/01/22 06:33:39;;;;;;;12.95;7.90;;;6.80;89.90;;;7.07;74.66;97982.56;4979392;28;20051;-86
2021/01/22 06:36:09;;;;;;;12.35;7.45;;;6.80;89.90;;;7.12;74.76;97988.09;4969317;28;20051;-85
2021/01/22 06:38:39;;;;;;;12.30;7.78;;;6.80;89.90;;;7.15;74.59;97996.59;4968274;28;20050;-84
2021/01/22 06:41:06;;;;;;;14.75;8.38;;;6.80;90.00;;;7.14;74.82;97999.50;4970140;28;20050;-86
2021/01/22 06:43:35;;;;;;;11.32;7.72;;;6.90;90.00;;;7.13;74.67;97995.16;4980594;28;20055;-86
2021/01/22 06:46:07;;;;;;;12.05;7.95;;;6.90;90.10;;;7.15;75.08;97996.59;4988709;28;20567;-86
2021/01/22 06:49:44;;;;;;;14.05;8.73;;;6.90;90.00;;;7.17;74.66;97999.06;4989434;28;20038;-87
2021/01/22 06:52:29;;;;;;;13.48;7.55;;;6.90;90.30;;;7.18;75.05;98011.56;4955178;28;20046;-89
2021/01/22 06:55:06;;;;;;;12.95;7.88;;;6.90;90.00;;;7.18;74.91;98011.56;4971873;28;20090;-86
2021/01/22 06:57:33;;;;;;;13.30;7.53;;;6.90;90.00;;;7.17;75.32;98020.72;4969944;28;20058;-86
2021/01/22 07:00:01;;;;;;;13.38;7.50;;;6.90;90.10;;;7.16;75.11;98016.34;4969918;28;20050;-88
2021/01/22 07:02:42;;;;;;;12.70;7.50;;;6.90;90.30;;;7.16;75.01;98019.03;4970765;28;20139;-88
2021/01/22 07:05:40;;;;;;;14.70;7.60;;;6.90;90.30;;;7.20;75.81;98025.69;4969482;28;20043;-88
2021/01/22 07:08:06;;;;;;;11.70;7.15;;;6.90;90.40;;;7.28;75.22;98033.50;4968349;28;20393;-88
2021/01/22 07:11:03;;;;;;;14.40;8.02;;;7.00;90.50;;;7.30;74.95;98030.56;4969967;28;20038;-86
2021/01/22 07:13:34;;;;;;;11.85;7.45;;;6.90;90.40;;;7.30;74.72;98036.81;4969869;28;20089;-88
2021/01/22 07:16:05;;;;;;;14.75;7.65;;;6.90;90.30;;;7.33;75.32;98047.19;4969638;28;20038;-89
2021/01/22 07:18:43;;;;;;;14.15;7.90;;;6.90;90.30;;;7.23;75.05;98049.56;4969222;28;20046;-89
2021/01/22 07:21:37;;;;;;;12.70;7.18;;;7.00;90.20;;;7.23;75.08;98060.38;4969569;28;20042;-89
2021/01/22 07:24:35;;;;;;;13.70;7.00;;;7.00;90.20;;;7.22;74.77;98056.03;4967800;28;20042;-89
2021/01/22 07:27:13;;;;;;;14.05;7.00;;;7.00;90.00;;;7.21;75.47;98060.59;4966427;28;20053;-88
2021/01/22 07:29:40;;;;;;;16.23;6.90;;;7.00;90.20;;;7.24;75.38;98067.47;4967503;28;20509;-88
2021/01/22 07:32:09;;;;;;;12.48;6.28;;;7.00;90.30;;;7.29;75.07;98069.50;4968856;28;20117;-87
2021/01/22 07:34:54;;;;;;;13.75;7.88;;;7.00;90.50;;;7.27;74.80;98066.19;4967442;28;20465;-89
2021/01/22 07:37:24;;;;;;;12.88;7.88;;;7.00;90.20;;;7.27;74.96;98067.00;4968331;28;20512;-88
2021/01/22 07:39:53;;;;;;;13.18;7.25;;;7.00;90.20;;;7.24;74.77;98072.88;4967501;28;20055;-88
2021/01/22 07:42:24;;;;;;;;;;;7.10;90.20;;;7.23;75.47;98079.31;4967897;28;20133;-87
2021/01/22 07:44:53;;;;;;;17.20;7.93;;;7.10;90.10;;;7.29;75.47;98088.44;4967159;28;19949;-88
2021/01/22 07:47:26;;;;;;;14.20;8.27;;;7.10;90.10;;;7.31;75.65;98087.16;4967868;28;20050;-88
2021/01/22 07:49:58;;;;;;;14.15;8.07;;;7.10;90.30;;;7.30;75.33;98088.22;4967292;28;20055;-88
2021/01/22 07:52:26;;;;;;;17.00;8.55;;;7.10;90.30;;;7.34;75.32;98085.88;4967494;28;20046;-88
2021/01/22 07:54:54;;;;;;;15.77;9.18;;;7.10;90.30;;;7.35;75.06;98088.38;4968646;28;20057;-87
2021/01/22 07:57:23;;;;;;;15.95;9.70;;;7.10;90.20;;;7.33;75.25;98086.91;4968370;28;20038;-88
2021/01/22 07:59:52;;;;;;;14.85;8.32;;;7.10;90.10;;;7.31;75.22;98086.31;4968797;28;20411;-88
2021/01/22 08:02:20;;;;;;;16.70;8.95;;;7.10;89.90;;;7.33;75.14;98090.47;4967676;28;20531;-88
2021/01/22 08:04:55;;;;;;;14.23;8.13;;;7.10;89.90;;;7.35;75.34;98096.50;4967910;28;20055;-87
2021/01/22 08:07:36;;;;;;;14.23;8.60;;;7.10;90.00;;;7.32;75.38;98093.41;4967878;28;20474;-87
2021/01/22 08:10:05;;;;;;;14.70;8.13;;;7.10;90.00;;;7.35;75.18;98107.31;4968266;28;20055;-87
2021/01/22 08:12:32;;;;;;;16.70;8.48;;;7.10;90.10;;;7.32;75.28;98102.34;4969309;28;20285;-87
2021/01/22 08:15:00;;;;;;;14.85;8.10;;;7.10;90.00;;;7.31;74.89;98100.69;4969003;28;20043;-88
2021/01/22 08:17:28;;;;;;;15.38;8.25;;;7.10;89.90;;;7.31;74.97;98103.41;4968850;28;20142;-88
2021/01/22 08:19:57;;;;;;;14.10;7.65;;;7.10;89.80;;;7.32;75.63;98113.16;4968832;28;20047;-87
2021/01/22 08:22:24;;;;;;;14.15;7.63;;;7.10;90.10;;;7.32;75.92;98128.56;4969070;28;20134;-88
2021/01/22 08:24:52;;;;;;;14.35;7.43;;;7.20;90.00;;;7.34;75.72;98123.75;4968594;28;20150;-87
2021/01/22 08:27:23;;;;;;;13.10;7.50;;;7.20;90.10;;;7.37;75.41;98124.16;4968663;28;20050;-88
2021/01/22 08:29:51;;;;;;;13.10;7.43;;;7.20;90.00;;;7.42;75.28;98124.31;4979358;28;20050;-88
2021/01/22 08:32:18;;;;;;;14.20;6.95;;;7.20;89.90;;;7.43;75.62;98128.66;4989018;28;20217;-85
2021/01/22 08:34:46;;;;;;;15.32;7.43;;;7.20;90.00;;;7.43;75.44;98125.97;4986221;28;20056;-86
2021/01/22 08:37:15;;;;;;;15.27;7.40;;;7.20;90.10;;;7.41;75.54;98125.34;4986627;28;20431;-85
2021/01/22 08:39:55;;;;;;;13.68;7.30;;;7.20;90.10;;;7.42;75.68;98126.16;4986471;28;20516;-86
2021/01/22 08:42:22;;;;;;;14.30;7.47;;;7.30;90.40;;;7.46;75.83;98135.50;4968320;28;20501;-86
2021/01/22 08:44:58;;;;;;;15.15;7.75;;;7.30;90.40;;;7.50;75.82;98135.88;4966681;28;20520;-86
2021/01/22 08:47:27;;;;;;;15.68;7.95;;;7.30;90.90;;;7.50;76.26;98144.84;4966812;28;20050;-85
2021/01/22 08:50:03;;;;;;;13.77;8.18;;;7.30;90.90;;;7.42;76.47;98132.44;4966654;28;20074;-88
2021/01/22 08:52:31;;;;;;;13.68;7.85;;;7.30;90.80;;;7.42;76.26;98137.84;4966967;28;20497;-86
2021/01/22 08:54:59;;;;;;;13.68;7.88;;;7.30;90.90;;;7.47;75.86;98139.06;4968438;28;20082;-87
2021/01/22 08:57:28;;;;;;;16.88;7.63;;;7.30;90.60;;;7.50;76.34;98147.56;4980600;28;20888;-86
2021/01/22 08:59:57;;;;;;;13.85;7.43;;;7.40;90.60;;;7.54;76.09;98139.78;4968975;28;20070;-86
2021/01/22 09:02:37;;;;;;;14.07;7.38;;;7.40;90.50;;;7.53;75.86;98143.56;4970449;28;20057;-88
2021/01/22 09:05:11;;;;;;;14.05;6.80;;;7.40;90.40;;;7.58;76.06;98141.03;4971604;28;20046;-88
2021/01/22 09:07:39;;;;;;;12.70;7.00;;;7.40;90.30;;;7.61;76.06;98151.38;4970529;28;20057;-88
2021/01/22 09:10:27;;;;;;;14.75;6.75;;;7.40;90.30;;;7.60;75.74;98155.16;4970553;28;20817;-88
2021/01/22 09:12:54;;;;;;;14.27;7.68;;;7.50;90.50;;;7.60;76.05;98166.00;4970670;28;20058;-88
2021/01/22 09:15:21;;;;;;;15.85;7.10;;;7.50;90.50;;;7.61;75.82;98167.63;4970243;28;20051;-88
2021/01/22 09:17:50;;;;;;;13.10;6.97;;;7.50;90.50;;;7.60;75.78;98168.69;4970935;28;20051;-87
2021/01/22 09:20:19;;;;;;;15.45;7.32;;;7.50;90.20;;;7.62;75.64;98191.78;4971747;28;20480;-87
2021/01/22 09:22:47;;;;;;;11.77;6.55;;;7.50;90.10;;;7.64;75.75;98186.13;4971641;28;20069;-88
2021/01/22 09:25:20;;;;;;;13.27;7.07;;;7.50;90.40;;;7.64;76.44;98194.25;4971642;28;20145;-88
2021/01/22 09:27:48;;;;;;;12.38;6.53;;;7.60;90.60;;;7.69;76.31;98199.84;4971741;28;20718;-86
2021/01/22 09:30:19;;;;;;;16.15;6.72;;;7.50;90.70;;;7.69;75.83;98191.72;4984134;28;20042;-87
2021/01/22 09:32:48;;;;;;;15.60;6.72;;;7.60;90.40;;;7.72;75.69;98185.84;4990832;28;20043;-88
2021/01/22 09:35:16;;;;;;;14.95;6.15;;;7.60;90.20;;;7.72;75.70;98191.25;4989000;28;20082;-88
2021/01/22 09:37:42;;;;;;;15.63;7.70;;;7.60;90.30;;;7.64;76.19;98197.78;4989362;28;20149;-87
2021/01/22 09:40:11;;;;;;;14.90;6.68;;;7.70;90.20;;;7.70;76.11;98206.06;4989128;28;20141;-88
2021/01/22 09:42:39;;;;;;;17.65;6.75;;;7.70;90.20;;;7.71;75.98;98205.84;4989367;28;20047;-88
2021/01/22 09:45:08;;;;;;;12.27;7.20;;;7.70;90.10;;;7.68;76.41;98200.06;4990371;28;20046;-87
2021/01/22 09:47:35;;;;;;;11.25;6.10;;;7.70;90.20;;;7.76;76.47;98216.00;4990080;28;20531;-87
2021/01/22 09:50:05;;;;;;;13.38;6.15;;;7.80;90.50;;;7.77;75.86;98228.50;4988993;28;20523;-89
2021/01/22 09:52:33;;;;;;;13.38;6.15;;;7.80;90.50;;;7.75;76.06;98226.03;4990663;28;20504;-87
2021/01/22 09:55:00;;;;;;;11.30;6.05;;;7.80;90.30;;;7.78;76.63;98225.56;4988928;28;20575;-87
2021/01/22 09:57:27;;;;;;;12.80;6.18;;;7.80;90.00;;;7.76;76.03;98235.78;4989010;28;20061;-88
2021/01/22 09:59:55;;;;;;;13.90;6.03;;;7.80;89.90;;;7.78;76.66;98228.25;4989956;28;20041;-88
2021/01/22 10:02:22;;;;;;;12.63;5.88;;;7.80;89.70;;;7.82;75.80;98240.31;4988745;28;20678;-88
2021/01/22 10:04:49;;;;;;;14.30;5.72;;;7.90;90.00;;;7.86;75.84;98251.50;4990230;28;20062;-87
2021/01/22 10:07:16;;;;;;;13.95;5.53;;;7.90;89.70;;;7.89;75.52;98244.84;4989727;28;20116;-87
2021/01/22 10:09:43;;;;;;;15.40;5.75;;;7.90;89.40;;;7.90;75.40;98251.91;4989620;28;20412;-88
2021/01/22 10:12:10;;;;;;;12.30;5.88;;;7.90;89.40;;;7.88;76.32;98259.41;4989079;28;20061;-88
2021/01/22 10:14:40;;;;;;;12.23;5.80;;;7.90;89.40;;;7.86;74.82;98259.63;4989811;28;20070;-88
2021/01/22 10:17:11;;;;;;;11.07;5.75;;;8.00;89.00;;;7.81;75.78;98271.16;4988229;28;20053;-89
2021/01/22 10:19:37;;;;;;;12.35;5.75;;;8.00;88.70;;;7.80;75.49;98269.47;4988306;28;20054;-87
2021/01/22 10:22:07;;;;;;;10.63;5.72;;;8.00;88.60;;;7.84;75.60;98267.16;4989559;28;20113;-87
2021/01/22 10:24:34;;;;;;;12.32;5.65;;;8.10;88.90;;;7.87;75.65;98277.56;4969138;28;20564;-88
2021/01/22 10:27:01;;;;;;;12.80;6.18;;;8.00;88.70;;;7.88;75.81;98275.66;4968370;28;20047;-87
2021/01/22 10:29:28;;;;;;;14.00;5.38;;;8.00;88.60;;;7.93;75.43;98286.69;4984318;28;20393;-88
2021/01/22 10:31:55;;;;;;;14.75;5.30;;;8.00;88.40;;;7.91;74.75;98281.47;4989455;28;20058;-87
2021/01/22 10:34:22;;;;;;;14.10;5.43;;;8.10;88.30;;;7.96;75.65;98283.53;4989620;28;20042;-89
2021/01/22 10:36:52;;;;;;;10.82;5.60;;;8.10;88.30;;;7.90;75.64;98285.25;4987697;28;20051;-88
2021/01/22 10:39:19;;;;;;;14.10;6.10;;;8.10;88.00;;;7.96;75.21;98283.53;4988014;28;20047;-87